Time;durP1;ratioP1;P1;durP2;ratioP2;P2;SDS_P1;SDS_P2;PMS_P1;PMS_P2;Temp;Humidity;BMP_temperature;BMP_pressure;BME280_temperature;BME280_humidity;BME280_pressure;Samples;Min_cycle;Max_cycle;Signal;HPM_P1;HPM_P2
2022/11/02 00:00:23;;;;;;;10.65;1.90;;;15.10;99.90;;;;;;5057088;28;25121;-71
2022/11/02 00:02:49;;;;;;;7.28;2.05;;;15.00;99.90;;;;;;5059933;28;25124;-72
2022/11/02 00:05:15;;;;;;;9.57;2.08;;;15.10;99.90;;;;;;5063793;28;25148;-73
2022/11/02 00:07:41;;;;;;;11.48;2.30;;;15.00;99.90;;;;;;5062117;28;25065;-73
2022/11/02 00:10:08;;;;;;;8.63;2.38;;;15.00;99.90;;;;;;5056084;28;25083;-73
2022/11/02 00:12:34;;;;;;;8.43;2.00;;;15.00;99.90;;;;;;5061557;28;25128;-73
2022/11/02 00:14:59;;;;;;;10.75;1.95;;;15.00;99.90;;;;;;5040557;28;25274;-73
2022/11/02 00:17:25;;;;;;;11.68;1.92;;;14.90;99.90;;;;;;5055219;28;25062;-73
2022/11/02 00:19:51;;;;;;;6.20;1.63;;;14.90;99.90;;;;;;5063446;28;25060;-74
2022/11/02 00:22:16;;;;;;;9.98;1.60;;;14.80;99.90;;;;;;5059397;28;25131;-72
2022/11/02 00:24:42;;;;;;;9.50;2.00;;;14.70;99.90;;;;;;5055885;28;25079;-73
2022/11/02 00:27:08;;;;;;;5.80;1.67;;;14.70;99.90;;;;;;5062266;28;25073;-71
2022/11/02 00:29:34;;;;;;;4.57;1.33;;;14.70;99.90;;;;;;5056780;28;25063;-73
2022/11/02 00:32:00;;;;;;;15.10;2.83;;;14.60;99.90;;;;;;5056961;28;25103;-73
2022/11/02 00:34:26;;;;;;;5.20;1.13;;;14.70;99.90;;;;;;5045999;28;25123;-72
2022/11/02 00:36:53;;;;;;;3.40;1.00;;;14.20;99.90;;;;;;5066748;28;25073;-71
2022/11/02 00:39:18;;;;;;;1.63;0.40;;;13.50;99.90;;;;;;5075400;28;25066;-73
2022/11/02 00:41:44;;;;;;;1.60;0.70;;;13.20;99.90;;;;;;5073340;28;25133;-71
2022/11/02 00:44:09;;;;;;;1.80;0.80;;;13.10;99.90;;;;;;5068242;28;25063;-72
2022/11/02 00:46:35;;;;;;;3.15;0.63;;;12.80;99.90;;;;;;5061368;28;25151;-73
2022/11/02 00:49:01;;;;;;;2.97;0.55;;;12.70;99.90;;;;;;5042955;28;25070;-73
2022/11/02 00:51:26;;;;;;;3.45;0.60;;;12.60;99.90;;;;;;5063470;28;25064;-73
2022/11/02 00:53:52;;;;;;;4.05;0.35;;;12.60;99.90;;;;;;5062120;28;25163;-74
2022/11/02 00:56:17;;;;;;;3.83;0.57;;;12.60;99.90;;;;;;5057282;28;25114;-74
2022/11/02 00:58:43;;;;;;;3.53;0.90;;;12.50;99.90;;;;;;5068953;28;25075;-72
2022/11/02 01:01:10;;;;;;;4.18;0.60;;;12.40;99.90;;;;;;5069446;28;25112;-73
2022/11/02 01:03:35;;;;;;;5.22;0.80;;;12.50;99.90;;;;;;5068723;28;25115;-73
2022/11/02 01:06:12;;;;;;;3.72;1.50;;;12.50;99.90;;;;;;5062382;28;25082;-73
2022/11/02 01:08:39;;;;;;;3.42;0.68;;;12.50;99.90;;;;;;5062517;28;25074;-73
2022/11/02 01:11:14;;;;;;;7.00;0.60;;;12.50;99.90;;;;;;5059434;28;25135;-73
2022/11/02 01:13:39;;;;;;;7.18;0.90;;;12.50;99.90;;;;;;5041742;28;25083;-73
2022/11/02 01:16:06;;;;;;;5.45;1.17;;;12.50;99.90;;;;;;5060447;28;25068;-73
2022/11/02 01:18:31;;;;;;;9.25;2.45;;;12.50;99.90;;;;;;5059141;28;25074;-73
2022/11/02 01:20:58;;;;;;;5.82;1.30;;;12.60;99.90;;;;;;5063521;28;25078;-73
2022/11/02 01:23:24;;;;;;;6.25;1.50;;;12.70;99.90;;;;;;5057567;28;25128;-74
2022/11/02 01:25:50;;;;;;;11.38;1.15;;;12.60;99.90;;;;;;5072855;28;25073;-71
2022/11/02 01:28:16;;;;;;;2.92;0.88;;;12.60;99.90;;;;;;5073195;28;25066;-72
2022/11/02 01:30:41;;;;;;;3.80;0.75;;;12.60;99.90;;;;;;5058850;28;25123;-74
2022/11/02 01:33:07;;;;;;;8.93;1.40;;;12.60;99.90;;;;;;5073277;28;25141;-74
2022/11/02 01:35:35;;;;;;;10.13;1.65;;;12.60;99.90;;;;;;5065164;28;25082;-73
2022/11/02 01:38:00;;;;;;;6.53;1.30;;;12.60;99.90;;;;;;5075065;28;25066;-72
2022/11/02 01:40:26;;;;;;;8.38;1.42;;;12.60;99.90;;;;;;5067773;28;25126;-72
2022/11/02 01:42:52;;;;;;;3.88;1.25;;;12.60;99.90;;;;;;5080965;28;25137;-74
2022/11/02 01:45:17;;;;;;;7.32;1.27;;;12.70;99.90;;;;;;5074223;28;25094;-74
2022/11/02 01:47:46;;;;;;;9.18;1.80;;;12.70;99.90;;;;;;5064077;28;25138;-73
2022/11/02 01:50:20;;;;;;;5.53;1.33;;;12.80;99.90;;;;;;5070478;28;25110;-75
2022/11/02 01:52:45;;;;;;;8.40;1.40;;;12.90;99.90;;;;;;5070518;28;25113;-74
2022/11/02 01:55:15;;;;;;;5.88;1.50;;;13.00;99.90;;;;;;5070794;28;25052;-73
2022/11/02 01:57:44;;;;;;;4.38;2.20;;;13.10;99.90;;;;;;5046312;28;25097;-73
2022/11/02 02:00:13;;;;;;;6.50;2.38;;;13.20;99.90;;;;;;5062596;28;25152;-74
2022/11/02 02:02:48;;;;;;;3.60;1.50;;;13.30;99.90;;;;;;5073293;28;25085;-77
2022/11/02 02:05:15;;;;;;;8.60;1.30;;;13.40;99.90;;;;;;5053320;28;25077;-77
2022/11/02 02:07:41;;;;;;;9.52;1.75;;;13.50;99.90;;;;;;5068584;28;25068;-75
2022/11/02 02:10:07;;;;;;;9.23;1.60;;;13.50;99.90;;;;;;5062884;28;25054;-76
2022/11/02 02:12:35;;;;;;;7.80;2.65;;;13.60;99.90;;;;;;5070521;28;25099;-77
2022/11/02 02:15:01;;;;;;;4.32;1.35;;;13.50;99.90;;;;;;5064583;28;25053;-75
2022/11/02 02:17:45;;;;;;;6.60;2.17;;;13.60;99.90;;;;;;5062470;28;25070;-74
2022/11/02 02:20:30;;;;;;;11.80;1.92;;;13.60;99.90;;;;;;5044857;28;25147;-76
2022/11/02 02:23:07;;;;;;;9.25;1.77;;;13.70;99.90;;;;;;5042817;28;25103;-74
2022/11/02 02:25:54;;;;;;;11.10;2.17;;;13.70;99.90;;;;;;5045591;28;25066;-76
2022/11/02 02:28:27;;;;;;;10.25;1.60;;;13.60;99.90;;;;;;5074729;28;25061;-74
2022/11/02 02:31:00;;;;;;;5.95;1.25;;;13.60;99.90;;;;;;5064099;28;25089;-76
2022/11/02 02:33:33;;;;;;;10.02;1.70;;;13.50;99.90;;;;;;5064816;28;25104;-76
2022/11/02 02:36:04;;;;;;;;;;;13.50;99.90;;;;;;5051860;28;25096;-75
2022/11/02 02:38:34;;;;;;;7.00;1.50;;;13.50;99.90;;;;;;5068823;28;25120;-75
2022/11/02 02:41:11;;;;;;;9.70;2.92;;;13.40;99.90;;;;;;5069570;28;25054;-74
2022/11/02 02:43:55;;;;;;;13.63;2.00;;;13.40;99.90;;;;;;5059728;28;25071;-75
2022/11/02 02:46:31;;;;;;;7.95;1.33;;;13.40;99.90;;;;;;5063652;28;25081;-76
2022/11/02 02:48:58;;;;;;;9.02;1.58;;;13.40;99.90;;;;;;5045645;28;25133;-75
2022/11/02 02:51:33;;;;;;;5.40;1.35;;;13.40;99.90;;;;;;5061596;28;25132;-76
2022/11/02 02:54:20;;;;;;;11.30;1.92;;;13.40;99.90;;;;;;5056687;28;24907;-77
2022/11/02 02:56:51;;;;;;;31.95;1.85;;;13.40;99.90;;;;;;5051133;28;25059;-74
2022/11/02 02:59:28;;;;;;;15.30;2.15;;;13.30;99.90;;;;;;5055217;28;25081;-77
2022/11/02 03:01:55;;;;;;;8.80;1.92;;;13.20;99.90;;;;;;5064456;28;25081;-74
2022/11/02 03:04:21;;;;;;;10.32;1.85;;;13.20;99.90;;;;;;5036783;28;25073;-73
2022/11/02 03:06:53;;;;;;;5.60;1.60;;;13.10;99.90;;;;;;5066671;28;25067;-79
2022/11/02 03:09:19;;;;;;;7.43;1.95;;;13.10;99.90;;;;;;5065485;28;25058;-78
2022/11/02 03:12:13;;;;;;;10.30;2.00;;;13.10;99.90;;;;;;5066055;28;25127;-75
2022/11/02 03:14:44;;;;;;;15.55;2.25;;;13.10;99.90;;;;;;5045808;28;25054;-77
2022/11/02 03:17:15;;;;;;;9.00;1.58;;;13.10;99.90;;;;;;5074896;28;25102;-77
2022/11/02 03:19:54;;;;;;;7.32;2.00;;;13.10;99.90;;;;;;5060334;28;25053;-76
2022/11/02 03:22:45;;;;;;;9.15;1.92;;;13.10;99.90;;;;;;5062930;28;25164;-74
2022/11/02 03:25:28;;;;;;;8.20;1.60;;;13.00;99.90;;;;;;5037779;28;25081;-76
2022/11/02 03:28:26;;;;;;;7.35;2.22;;;13.00;99.90;;;;;;5063004;28;25081;-75
2022/11/02 03:31:30;;;;;;;16.48;2.58;;;13.00;99.90;;;;;;5046155;28;25127;-75
2022/11/02 03:34:19;;;;;;;14.15;2.53;;;13.00;99.90;;;;;;5059114;28;25072;-77
2022/11/02 03:36:55;;;;;;;9.25;2.35;;;12.90;99.90;;;;;;5045219;28;25111;-74
2022/11/02 03:39:44;;;;;;;11.73;2.53;;;12.90;99.90;;;;;;5074536;28;25152;-75
2022/11/02 03:42:15;;;;;;;12.30;2.65;;;12.80;99.90;;;;;;5049741;28;25083;-77
2022/11/02 03:44:42;;;;;;;9.30;1.90;;;12.80;99.90;;;;;;5066534;28;25067;-78
2022/11/02 03:47:15;;;;;;;17.30;2.90;;;12.80;99.90;;;;;;5058557;28;25065;-73
2022/11/02 03:49:43;;;;;;;27.05;2.78;;;12.80;99.90;;;;;;5067713;28;25072;-75
2022/11/02 03:52:14;;;;;;;13.95;1.80;;;12.80;99.90;;;;;;5075838;28;25065;-75
2022/11/02 03:54:57;;;;;;;17.75;4.22;;;12.80;99.90;;;;;;5067987;28;25124;-74
2022/11/02 03:57:26;;;;;;;;;;;12.80;99.90;;;;;;5052742;28;25119;-74
2022/11/02 03:59:51;;;;;;;7.93;1.73;;;12.80;99.90;;;;;;5075480;28;25077;-76
2022/11/02 04:02:18;;;;;;;11.95;2.00;;;12.80;99.90;;;;;;5075919;28;25055;-75
2022/11/02 04:04:51;;;;;;;7.63;1.83;;;12.80;99.90;;;;;;5076995;28;25113;-73
2022/11/02 04:07:28;;;;;;;13.98;2.22;;;12.80;99.90;;;;;;5072176;28;25044;-71
2022/11/02 04:09:53;;;;;;;12.95;2.70;;;12.70;99.90;;;;;;5068594;28;25061;-73
2022/11/02 04:15:03;;;;;;;14.65;2.80;;;12.80;99.90;;;;;;5056629;28;25061;-75
2022/11/02 04:20:13;;;;;;;11.52;2.17;;;12.80;99.90;;;;;;5065546;28;25059;-73
2022/11/02 04:25:23;;;;;;;9.38;2.45;;;12.80;99.90;;;;;;5056287;28;25056;-76
2022/11/02 04:27:50;;;;;;;11.38;2.05;;;12.90;99.90;;;;;;5065821;28;25098;-75
2022/11/02 04:30:21;;;;;;;9.43;1.98;;;12.90;99.90;;;;;;5052154;28;25083;-75
2022/11/02 04:35:34;;;;;;;19.85;2.05;;;13.00;99.90;;;;;;5064811;28;25139;-76
2022/11/02 04:40:44;;;;;;;7.82;2.40;;;12.90;99.90;;;;;;5064472;28;25135;-75
2022/11/02 04:43:10;;;;;;;10.35;2.38;;;12.90;99.90;;;;;;5068776;28;25102;-76
2022/11/02 04:45:36;;;;;;;15.85;2.47;;;12.90;99.90;;;;;;5058471;28;25161;-75
2022/11/02 04:48:06;;;;;;;13.27;2.63;;;12.90;99.90;;;;;;5069924;28;25130;-72
2022/11/02 04:50:33;;;;;;;11.57;2.03;;;12.90;99.90;;;;;;5071453;28;25078;-75
2022/11/02 04:53:02;;;;;;;12.63;2.70;;;12.90;99.90;;;;;;5070848;28;25105;-77
2022/11/02 04:55:28;;;;;;;14.02;3.75;;;12.90;99.90;;;;;;5070268;28;25169;-77
2022/11/02 04:57:54;;;;;;;6.22;1.98;;;12.90;99.90;;;;;;5064665;28;25061;-75
2022/11/02 05:00:20;;;;;;;14.80;2.10;;;12.80;99.90;;;;;;5060065;28;25066;-75
2022/11/02 05:02:47;;;;;;;15.48;2.95;;;12.80;99.90;;;;;;5059319;28;25121;-72
2022/11/02 05:05:13;;;;;;;20.52;2.65;;;12.80;99.90;;;;;;5071588;28;25112;-73
2022/11/02 05:07:39;;;;;;;14.93;2.25;;;12.90;99.90;;;;;;5063955;28;25142;-74
2022/11/02 05:10:05;;;;;;;10.02;2.90;;;12.80;99.90;;;;;;5066719;28;25045;-75
2022/11/02 05:12:31;;;;;;;21.08;2.92;;;12.80;99.90;;;;;;5048731;28;25081;-74
2022/11/02 05:14:56;;;;;;;12.15;2.03;;;12.90;99.90;;;;;;5074087;28;25065;-73
2022/11/02 05:17:22;;;;;;;10.02;2.28;;;12.90;99.90;;;;;;5066223;28;25072;-77
2022/11/02 05:19:47;;;;;;;8.00;2.00;;;12.90;99.90;;;;;;5065309;28;25119;-77
2022/11/02 05:22:13;;;;;;;15.63;3.35;;;12.80;99.90;;;;;;5044297;28;25051;-73
2022/11/02 05:24:39;;;;;;;9.88;1.88;;;12.80;99.90;;;;;;5055517;28;25076;-73
2022/11/02 05:27:05;;;;;;;9.77;1.73;;;12.80;99.90;;;;;;5060647;28;25125;-77
2022/11/02 05:29:30;;;;;;;11.40;2.08;;;12.80;99.90;;;;;;5062067;28;25116;-77
2022/11/02 05:31:56;;;;;;;11.75;2.00;;;12.70;99.90;;;;;;5062523;28;25064;-74
2022/11/02 05:34:22;;;;;;;12.50;2.15;;;12.80;99.90;;;;;;5058756;28;25066;-74
2022/11/02 05:36:48;;;;;;;10.75;1.58;;;12.80;99.90;;;;;;5055081;28;25092;-76
2022/11/02 05:39:14;;;;;;;10.27;1.80;;;12.70;99.90;;;;;;5056448;28;24866;-75
2022/11/02 05:41:40;;;;;;;6.32;1.58;;;12.70;99.90;;;;;;5061625;28;25139;-76
2022/11/02 05:44:05;;;;;;;17.88;2.88;;;12.60;99.90;;;;;;5042819;28;25071;-77
2022/11/02 05:46:32;;;;;;;13.15;3.30;;;12.60;99.90;;;;;;5057865;28;25152;-75
2022/11/02 05:48:57;;;;;;;18.70;2.40;;;12.60;99.90;;;;;;5048027;28;25103;-76
2022/11/02 05:51:23;;;;;;;18.23;2.30;;;12.50;99.90;;;;;;5058650;28;25109;-75
2022/11/02 05:53:49;;;;;;;5.70;1.67;;;12.50;99.90;;;;;;5055999;28;25119;-74
2022/11/02 05:56:14;;;;;;;9.20;1.60;;;12.50;99.90;;;;;;5062220;28;25067;-76
2022/11/02 05:58:40;;;;;;;9.43;2.25;;;12.40;99.90;;;;;;5056153;28;25117;-75
2022/11/02 06:01:07;;;;;;;6.93;1.85;;;12.40;99.90;;;;;;5053475;28;25113;-73
2022/11/02 06:03:33;;;;;;;10.20;2.25;;;12.40;99.90;;;;;;5059022;28;25097;-77
2022/11/02 06:06:06;;;;;;;9.57;1.42;;;12.30;99.90;;;;;;5061798;28;25081;-74
2022/11/02 06:08:36;;;;;;;7.15;2.05;;;12.30;99.90;;;;;;5066232;28;25069;-74
2022/11/02 06:11:07;;;;;;;8.20;1.60;;;12.30;99.90;;;;;;5034554;28;25065;-77
2022/11/02 06:13:34;;;;;;;10.35;1.08;;;12.20;99.90;;;;;;5058973;28;25098;-75
2022/11/02 06:16:01;;;;;;;11.02;1.20;;;12.20;99.90;;;;;;5064936;28;25097;-76
2022/11/02 06:18:27;;;;;;;15.98;1.92;;;12.10;99.90;;;;;;5056707;28;25073;-74
2022/11/02 06:20:53;;;;;;;7.47;1.88;;;12.10;99.90;;;;;;5063274;28;25060;-75
2022/11/02 06:23:18;;;;;;;6.18;1.30;;;12.00;99.90;;;;;;5063745;28;25130;-74
2022/11/02 06:25:55;;;;;;;12.20;2.05;;;12.00;99.90;;;;;;5062687;28;25132;-79
2022/11/02 06:28:21;;;;;;;8.13;1.70;;;12.00;99.90;;;;;;5061564;28;25075;-76
2022/11/02 06:30:48;;;;;;;9.85;1.30;;;12.00;99.90;;;;;;5064234;28;25104;-75
2022/11/02 06:33:14;;;;;;;5.95;1.23;;;11.90;99.90;;;;;;5056577;28;25059;-77
2022/11/02 06:35:44;;;;;;;9.07;1.40;;;11.90;99.90;;;;;;5057590;28;25066;-74
2022/11/02 06:38:09;;;;;;;8.10;1.35;;;11.90;99.90;;;;;;5066273;28;25073;-76
2022/11/02 06:40:35;;;;;;;6.13;1.67;;;11.90;99.90;;;;;;5065936;28;25149;-74
2022/11/02 06:43:00;;;;;;;7.25;2.60;;;11.90;99.90;;;;;;5064719;28;25072;-74
2022/11/02 06:45:26;;;;;;;9.02;1.67;;;11.90;99.90;;;;;;5054122;28;25074;-77
2022/11/02 06:47:51;;;;;;;5.68;1.90;;;11.90;99.90;;;;;;5062610;28;25071;-81
2022/11/02 06:50:17;;;;;;;15.43;1.92;;;12.00;99.90;;;;;;5062050;28;25064;-78
2022/11/02 06:52:44;;;;;;;5.22;1.67;;;12.00;99.90;;;;;;5056697;28;25074;-75
2022/11/02 06:55:14;;;;;;;9.60;1.95;;;12.00;99.90;;;;;;5058091;28;25064;-75
2022/11/02 06:57:41;;;;;;;17.70;1.90;;;12.00;99.90;;;;;;5060366;28;25075;-76
2022/11/02 07:00:11;;;;;;;6.60;1.42;;;12.00;99.90;;;;;;5058541;28;25121;-73
2022/11/02 07:02:38;;;;;;;10.05;1.83;;;11.90;99.90;;;;;;5056547;28;25134;-76
2022/11/02 07:05:03;;;;;;;12.75;1.67;;;11.90;99.90;;;;;;5054940;28;25061;-75
2022/11/02 07:07:29;;;;;;;10.50;1.40;;;12.00;99.90;;;;;;5051020;28;25069;-76
2022/11/02 07:09:55;;;;;;;7.80;1.67;;;12.00;99.90;;;;;;5065575;28;25074;-73
2022/11/02 07:12:21;;;;;;;12.13;4.38;;;12.00;99.90;;;;;;5062198;28;25072;-76
2022/11/02 07:14:46;;;;;;;9.68;1.98;;;12.10;99.90;;;;;;5055251;28;25193;-72
2022/11/02 07:17:12;;;;;;;8.40;1.75;;;12.00;99.90;;;;;;5059180;28;25095;-72
2022/11/02 07:19:37;;;;;;;7.32;1.33;;;12.00;99.90;;;;;;5045143;28;25164;-73
2022/11/02 07:22:04;;;;;;;9.20;1.67;;;12.00;99.90;;;;;;5043023;28;25153;-71
2022/11/02 07:24:29;;;;;;;4.32;1.50;;;12.00;99.90;;;;;;5057213;28;25107;-73
2022/11/02 07:26:55;;;;;;;11.05;1.60;;;12.00;99.90;;;;;;5060378;28;25111;-72
2022/11/02 07:29:20;;;;;;;9.38;1.48;;;12.00;99.90;;;;;;5069577;28;25074;-71
2022/11/02 07:31:47;;;;;;;12.57;1.85;;;12.00;99.90;;;;;;5082937;28;25079;-71
2022/11/02 07:34:12;;;;;;;11.40;2.13;;;12.00;99.90;;;;;;5057593;28;25086;-72
2022/11/02 07:36:38;;;;;;;15.50;2.00;;;12.10;99.90;;;;;;5080563;28;25053;-74
2022/11/02 07:39:04;;;;;;;5.95;1.23;;;12.10;99.90;;;;;;5063375;28;25053;-73
2022/11/02 07:41:30;;;;;;;11.82;1.92;;;12.00;99.90;;;;;;5058233;28;25060;-71
2022/11/02 07:43:55;;;;;;;15.60;1.85;;;12.10;99.90;;;;;;5053292;28;25068;-72
2022/11/02 07:46:21;;;;;;;9.95;1.75;;;12.20;99.90;;;;;;5058187;28;25074;-72
2022/11/02 07:48:47;;;;;;;6.22;2.13;;;12.20;99.90;;;;;;5062536;28;25058;-72
2022/11/02 07:51:12;;;;;;;5.82;1.90;;;12.20;99.90;;;;;;5052750;28;25142;-72
2022/11/02 07:53:38;;;;;;;9.40;1.13;;;12.20;99.90;;;;;;5052486;28;25101;-71
2022/11/02 07:56:05;;;;;;;12.88;2.20;;;12.20;99.90;;;;;;5058682;28;25103;-71
2022/11/02 07:58:31;;;;;;;4.72;1.30;;;12.20;99.90;;;;;;5057156;28;25048;-71
2022/11/02 08:00:58;;;;;;;6.03;1.40;;;12.30;99.90;;;;;;5053723;28;25090;-73
2022/11/02 08:03:23;;;;;;;8.60;1.63;;;12.40;99.90;;;;;;5051659;28;25106;-72
2022/11/02 08:05:49;;;;;;;11.60;1.65;;;12.50;99.90;;;;;;5055638;28;25118;-73
2022/11/02 08:08:20;;;;;;;8.45;1.63;;;12.50;99.90;;;;;;5055374;28;25070;-72
2022/11/02 08:10:49;;;;;;;6.32;1.40;;;12.40;99.90;;;;;;5051555;28;25066;-73
2022/11/02 08:13:17;;;;;;;12.88;2.22;;;12.30;99.90;;;;;;5051218;28;25083;-73
2022/11/02 08:15:43;;;;;;;14.98;1.75;;;12.30;99.90;;;;;;5052706;28;25080;-74
2022/11/02 08:18:16;;;;;;;11.02;1.73;;;12.30;99.90;;;;;;5064124;28;25124;-72
2022/11/02 08:20:42;;;;;;;6.65;1.23;;;12.30;99.90;;;;;;5061172;28;25084;-72
2022/11/02 08:23:10;;;;;;;6.38;1.60;;;12.40;99.90;;;;;;5057416;28;25146;-72
2022/11/02 08:25:36;;;;;;;10.48;1.60;;;12.50;99.90;;;;;;5060497;28;25086;-72
2022/11/02 08:28:03;;;;;;;15.02;2.70;;;12.60;99.90;;;;;;5058327;28;25121;-72
2022/11/02 08:30:30;;;;;;;8.88;1.63;;;12.50;99.90;;;;;;5058157;28;25079;-71
2022/11/02 08:33:03;;;;;;;13.90;2.15;;;12.60;99.90;;;;;;5045585;28;25182;-72
2022/11/02 08:35:29;;;;;;;5.53;1.52;;;12.50;99.90;;;;;;5065366;28;25111;-72
2022/11/02 08:37:55;;;;;;;5.80;1.75;;;12.50;99.90;;;;;;5064777;28;25128;-71
2022/11/02 08:40:21;;;;;;;5.45;1.42;;;12.60;99.90;;;;;;5056335;28;25137;-72
2022/11/02 08:42:46;;;;;;;6.43;2.53;;;12.60;99.90;;;;;;5055179;28;25105;-73
2022/11/02 08:45:12;;;;;;;12.27;2.70;;;12.60;99.90;;;;;;5064013;28;25104;-72
2022/11/02 08:47:41;;;;;;;8.32;2.00;;;12.70;99.90;;;;;;5060770;28;25129;-71
2022/11/02 08:50:09;;;;;;;12.45;2.45;;;12.80;99.90;;;;;;5055791;28;25087;-72
2022/11/02 08:52:38;;;;;;;11.75;2.15;;;12.80;99.90;;;;;;5048268;28;25058;-73
2022/11/02 08:55:04;;;;;;;8.50;2.88;;;12.80;99.90;;;;;;5051722;28;25114;-72
2022/11/02 08:57:30;;;;;;;18.90;2.63;;;12.80;99.90;;;;;;5053423;28;25084;-72
2022/11/02 08:59:55;;;;;;;9.43;1.85;;;12.90;99.90;;;;;;5054043;28;25084;-73
2022/11/02 09:02:21;;;;;;;6.00;1.73;;;12.90;99.90;;;;;;5048593;28;25072;-74
2022/11/02 09:04:47;;;;;;;14.45;2.33;;;12.90;99.90;;;;;;5055360;28;25069;-72
2022/11/02 09:07:12;;;;;;;8.60;2.13;;;12.90;99.90;;;;;;5054031;28;25055;-72
2022/11/02 09:09:38;;;;;;;11.98;1.90;;;13.00;99.90;;;;;;5055642;28;25094;-72
2022/11/02 09:12:04;;;;;;;10.10;1.60;;;12.90;99.90;;;;;;5054483;28;25083;-72
2022/11/02 09:14:29;;;;;;;17.05;2.03;;;12.90;99.90;;;;;;5048460;28;25107;-72
2022/11/02 09:16:55;;;;;;;10.48;1.95;;;12.90;99.90;;;;;;5053452;28;25099;-72
2022/11/02 09:19:20;;;;;;;12.07;2.40;;;13.00;99.90;;;;;;5051747;28;26193;-74
2022/11/02 09:21:48;;;;;;;9.02;1.83;;;12.90;99.90;;;;;;5063570;28;25107;-71
2022/11/02 09:24:14;;;;;;;6.13;1.75;;;12.90;99.90;;;;;;5053569;28;25065;-72
2022/11/02 09:26:39;;;;;;;18.33;1.83;;;13.00;99.90;;;;;;5056672;28;25102;-71
2022/11/02 09:29:05;;;;;;;9.00;2.15;;;13.00;99.90;;;;;;5048725;28;25097;-72
2022/11/02 09:31:31;;;;;;;7.63;1.88;;;12.90;99.90;;;;;;5055830;28;25073;-72
2022/11/02 09:33:56;;;;;;;13.20;1.80;;;13.00;99.90;;;;;;5047680;28;25061;-71
2022/11/02 09:36:22;;;;;;;14.13;2.92;;;13.00;99.90;;;;;;5049126;28;25063;-71
2022/11/02 09:38:48;;;;;;;11.30;2.13;;;12.90;99.90;;;;;;5050244;28;25142;-71
2022/11/02 09:41:25;;;;;;;13.45;1.65;;;12.90;99.90;;;;;;5053107;28;25126;-72
2022/11/02 09:44:08;;;;;;;11.52;2.00;;;13.00;99.90;;;;;;5052878;28;25085;-73
2022/11/02 09:46:40;;;;;;;10.10;1.83;;;13.00;99.90;;;;;;5036969;28;25105;-71
2022/11/02 09:49:22;;;;;;;12.68;2.25;;;13.10;99.90;;;;;;5046740;28;25056;-72
2022/11/02 09:51:59;;;;;;;7.97;1.65;;;13.20;99.90;;;;;;5044478;28;25078;-73
2022/11/02 09:54:49;;;;;;;18.60;2.15;;;13.20;99.90;;;;;;5055428;28;25082;-72
2022/11/02 09:57:35;;;;;;;13.43;1.60;;;13.20;99.90;;;;;;5046313;28;25051;-72
2022/11/02 10:00:01;;;;;;;13.32;2.20;;;13.20;99.90;;;;;;5051472;28;25137;-72
2022/11/02 10:02:30;;;;;;;10.57;2.28;;;13.30;99.90;;;;;;5049166;28;25151;-73
2022/11/02 10:05:24;;;;;;;6.80;1.98;;;13.30;99.90;;;;;;5048633;28;25059;-72
2022/11/02 10:08:00;;;;;;;7.50;1.73;;;13.40;99.90;;;;;;5046317;28;25053;-73
2022/11/02 10:10:45;;;;;;;8.75;2.28;;;13.50;99.90;;;;;;5046341;28;25063;-72
2022/11/02 10:13:29;;;;;;;9.20;2.08;;;13.70;99.90;;;;;;5048156;28;25137;-71
2022/11/02 10:16:02;;;;;;;15.07;2.95;;;13.70;99.90;;;;;;5048615;28;25051;-71
2022/11/02 10:18:29;;;;;;;14.70;2.15;;;13.80;99.90;;;;;;5024606;28;25077;-71
2022/11/02 10:20:59;;;;;;;13.18;2.22;;;13.80;99.90;;;;;;5045165;28;25058;-71
2022/11/02 10:23:28;;;;;;;14.27;2.35;;;14.00;99.90;;;;;;5049391;28;25128;-72
2022/11/02 10:25:54;;;;;;;12.95;2.33;;;14.10;99.90;;;;;;5029359;28;25147;-71
2022/11/02 10:28:31;;;;;;;12.05;2.53;;;14.20;99.90;;;;;;5052061;28;25092;-72
2022/11/02 10:30:56;;;;;;;7.07;1.98;;;14.40;99.90;;;;;;5051043;28;25097;-72
2022/11/02 10:33:27;;;;;;;9.20;2.08;;;14.50;99.90;;;;;;5051121;28;25065;-72
2022/11/02 10:36:06;;;;;;;10.18;2.50;;;14.70;99.90;;;;;;5036102;28;25082;-72
2022/11/02 10:38:59;;;;;;;14.70;3.15;;;14.50;99.90;;;;;;5046826;28;25136;-73
2022/11/02 10:41:51;;;;;;;11.07;1.67;;;14.60;99.90;;;;;;5049974;28;25076;-72
2022/11/02 10:44:26;;;;;;;17.80;2.58;;;14.50;99.90;;;;;;5050591;28;25235;-71
2022/11/02 10:47:24;;;;;;;8.02;2.00;;;14.60;99.90;;;;;;5051355;28;25131;-71
2022/11/02 10:49:55;;;;;;;12.13;2.63;;;14.80;99.90;;;;;;5053387;28;25066;-72
2022/11/02 10:52:21;;;;;;;9.63;2.03;;;14.70;99.90;;;;;;5047816;28;25074;-73
2022/11/02 10:54:50;;;;;;;9.05;2.00;;;14.80;99.90;;;;;;5065795;28;25089;-71
2022/11/02 10:57:23;;;;;;;15.00;3.00;;;14.80;99.90;;;;;;5062553;28;25080;-73
2022/11/02 11:00:29;;;;;;;10.88;2.00;;;14.70;99.90;;;;;;5055127;28;25095;-71
2022/11/02 11:03:06;;;;;;;18.17;2.28;;;14.70;99.90;;;;;;5056368;28;25142;-72
2022/11/02 11:05:42;;;;;;;12.20;2.45;;;14.80;99.90;;;;;;5059566;28;25006;-73
2022/11/02 11:08:24;;;;;;;12.95;2.33;;;15.20;99.90;;;;;;5038159;28;25117;-72
2022/11/02 11:10:50;;;;;;;17.42;3.17;;;15.00;99.90;;;;;;5052663;28;25060;-72
2022/11/02 11:13:22;;;;;;;18.45;3.47;;;15.00;99.90;;;;;;5060396;28;25066;-72
2022/11/02 11:15:53;;;;;;;13.02;2.25;;;15.20;99.90;;;;;;5035590;28;25112;-73
2022/11/02 11:18:20;;;;;;;7.68;1.77;;;15.50;99.90;;;;;;5051372;28;25144;-71
2022/11/02 11:20:46;;;;;;;9.23;2.15;;;15.60;99.90;;;;;;5038293;28;25103;-71
2022/11/02 11:23:21;;;;;;;14.43;3.13;;;15.60;99.90;;;;;;5055648;28;25095;-74
2022/11/02 11:26:39;;;;;;;20.15;2.88;;;15.50;99.90;;;;;;5053414;28;25050;-71
2022/11/02 11:29:21;;;;;;;11.15;2.28;;;15.50;99.90;;;;;;5015479;28;25102;-72
2022/11/02 11:31:46;;;;;;;14.07;2.20;;;15.70;99.90;;;;;;5058721;28;25112;-71
2022/11/02 11:34:24;;;;;;;9.88;2.58;;;15.90;99.90;;;;;;5051126;28;25053;-73
2022/11/02 11:36:50;;;;;;;10.35;2.17;;;16.00;99.90;;;;;;5055626;28;25069;-73
2022/11/02 11:39:28;;;;;;;10.13;2.88;;;16.10;99.90;;;;;;5042605;28;25075;-72
2022/11/02 11:41:54;;;;;;;7.78;1.88;;;15.80;99.90;;;;;;5053111;28;25111;-73
2022/11/02 11:44:21;;;;;;;18.70;2.00;;;16.00;99.90;;;;;;5050598;28;25073;-73
2022/11/02 11:46:56;;;;;;;9.77;2.28;;;15.90;99.90;;;;;;5052290;28;25099;-72
2022/11/02 11:49:34;;;;;;;10.90;1.55;;;16.00;99.90;;;;;;5031372;28;25070;-71
2022/11/02 11:52:01;;;;;;;8.45;1.65;;;16.20;99.90;;;;;;5062249;28;25116;-73
2022/11/02 11:54:31;;;;;;;12.82;1.90;;;16.40;99.90;;;;;;5044740;28;25087;-72
2022/11/02 11:57:22;;;;;;;9.65;2.25;;;16.30;99.90;;;;;;5054620;28;25063;-71
2022/11/02 11:59:51;;;;;;;5.97;1.95;;;16.20;99.90;;;;;;5054617;28;25066;-72
2022/11/02 12:02:21;;;;;;;7.63;1.95;;;16.30;99.90;;;;;;5057992;28;25077;-71
2022/11/02 12:04:47;;;;;;;11.82;2.03;;;16.60;99.90;;;;;;5056968;28;25106;-72
2022/11/02 12:07:34;;;;;;;13.40;2.00;;;16.60;99.90;;;;;;5057222;28;25121;-72
2022/11/02 12:10:09;;;;;;;9.57;1.70;;;16.60;99.90;;;;;;5061858;28;25081;-72
2022/11/02 12:13:13;;;;;;;9.13;2.55;;;16.50;99.90;;;;;;5071141;28;25170;-72
2022/11/02 12:16:02;;;;;;;11.85;3.20;;;16.80;99.90;;;;;;5056942;28;25067;-71
2022/11/02 12:19:04;;;;;;;11.25;2.00;;;16.80;99.90;;;;;;5032902;28;25066;-72
2022/11/02 12:21:42;;;;;;;7.82;2.25;;;16.50;99.90;;;;;;5041746;28;25069;-74
2022/11/02 12:24:54;;;;;;;15.45;2.22;;;16.70;99.90;;;;;;5058091;28;25056;-73
2022/11/02 12:27:48;;;;;;;10.73;2.00;;;16.80;99.90;;;;;;5060265;28;25079;-74
2022/11/02 12:30:24;;;;;;;14.07;1.90;;;16.30;99.90;;;;;;5052504;28;25117;-73
2022/11/02 12:33:04;;;;;;;17.45;2.40;;;15.80;99.90;;;;;;5036297;28;25131;-71
2022/11/02 12:35:52;;;;;;;10.50;2.00;;;15.50;99.90;;;;;;5059617;28;25054;-74
2022/11/02 12:38:17;;;;;;;9.93;1.60;;;15.60;99.90;;;;;;5052901;28;25067;-74
2022/11/02 12:41:06;;;;;;;8.77;1.58;;;15.80;99.90;;;;;;5057089;28;25061;-73
2022/11/02 12:43:40;;;;;;;8.85;1.83;;;16.20;99.90;;;;;;5057224;28;25056;-72
2022/11/02 12:46:12;;;;;;;7.00;1.52;;;16.30;99.90;;;;;;5064058;28;25061;-73
2022/11/02 12:48:56;;;;;;;12.02;1.00;;;16.50;99.90;;;;;;5062480;28;25139;-73
2022/11/02 12:52:11;;;;;;;7.20;2.08;;;16.60;99.90;;;;;;5045553;28;25072;-73
2022/11/02 12:54:48;;;;;;;10.32;1.85;;;16.50;99.90;;;;;;4985259;28;25089;-73
2022/11/02 12:57:17;;;;;;;9.65;1.98;;;16.40;99.90;;;;;;5070262;28;25065;-72
2022/11/02 12:59:43;;;;;;;13.82;2.42;;;15.90;99.90;;;;;;5063925;28;25211;-74
2022/11/02 13:02:21;;;;;;;9.50;2.15;;;15.50;99.90;;;;;;5062966;28;25055;-74
2022/11/02 13:05:10;;;;;;;10.43;2.92;;;15.50;99.90;;;;;;5053583;28;25128;-73
2022/11/02 13:07:41;;;;;;;12.10;2.15;;;15.30;99.90;;;;;;5064655;28;25129;-75
2022/11/02 13:10:17;;;;;;;6.88;1.73;;;15.10;99.90;;;;;;5066208;28;25071;-74
2022/11/02 13:12:47;;;;;;;8.20;2.10;;;15.20;99.90;;;;;;5063339;28;25141;-74
2022/11/02 13:15:19;;;;;;;11.80;2.40;;;15.10;99.90;;;;;;5062984;28;25107;-74